Time;durP1;ratioP1;P1;durP2;ratioP2;P2;SDS_P1;SDS_P2;PMS_P1;PMS_P2;Temp;Humidity;BMP_temperature;BMP_pressure;BME280_temperature;BME280_humidity;BME280_pressure;Samples;Min_cycle;Max_cycle;Signal;HPM_P1;HPM_P2
2023/05/25 00:01:08;;;;;;;;;;;15.00;40.50;;;13.90;42.12;101923.34;12263926;19;19934;-84
2023/05/25 00:05:10;;;;;;;;;;;15.00;40.50;;;13.89;42.23;101912.94;12264715;19;19945;-83
2023/05/25 00:09:12;;;;;;;;;;;15.00;40.60;;;13.82;42.20;101917.63;12266853;19;20286;-84
2023/05/25 00:13:13;;;;;;;;;;;15.00;40.70;;;13.70;42.21;101905.13;12264951;19;19922;-83
2023/05/25 00:17:17;;;;;;;;;;;14.90;40.60;;;13.79;42.17;101930.91;12265569;19;19919;-83
2023/05/25 00:21:19;;;;;;;;;;;14.90;40.70;;;13.78;42.26;101931.84;12264161;19;19911;-83
2023/05/25 00:25:21;;;;;;;;;;;14.90;40.70;;;13.77;42.35;101935.41;12263356;19;20338;-83
2023/05/25 00:29:23;;;;;;;;;;;14.80;41.10;;;13.70;42.36;101921.72;12260120;19;19925;-83
2023/05/25 00:33:24;;;;;;;;;;;14.80;40.80;;;13.69;42.43;101919.16;12259959;19;19911;-84
2023/05/25 00:37:28;;;;;;;;;;;14.80;40.80;;;13.78;42.43;101941.50;12261488;19;19951;-83
2023/05/25 00:41:30;;;;;;;;;;;14.70;40.80;;;13.70;42.35;101942.72;12261211;19;19948;-84
2023/05/25 00:45:32;;;;;;;;;;;14.70;40.80;;;13.73;42.44;101944.34;12258344;19;19930;-83
2023/05/25 00:49:34;;;;;;;;;;;14.70;40.80;;;13.57;42.39;101919.78;12266273;19;19921;-84
2023/05/25 00:53:37;;;;;;;;;;;14.70;40.80;;;13.67;42.49;101940.25;12269794;19;19930;-83
2023/05/25 00:57:40;;;;;;;;;;;14.70;40.90;;;13.58;42.50;101927.56;12272175;19;19919;-84
2023/05/25 01:01:44;;;;;;;;;;;14.70;40.90;;;13.61;42.55;101937.94;12269164;19;19952;-84
2023/05/25 01:05:47;;;;;;;;;;;14.70;40.90;;;13.64;42.61;101945.66;12267972;19;19922;-83
2023/05/25 01:10:00;;;;;;;;;;;14.70;41.00;;;13.46;42.49;101917.66;12276269;19;19950;-83
2023/05/25 01:14:02;;;;;;;;;;;14.60;40.90;;;13.53;42.63;101929.56;12266252;19;19959;-84
2023/05/25 01:18:04;;;;;;;;;;;14.60;40.90;;;13.34;42.65;101899.88;12271473;19;19918;-83
2023/05/25 01:22:18;;;;;;;;;;;14.60;40.90;;;13.52;42.60;101940.97;12267705;19;19926;-83
2023/05/25 01:26:22;;;;;;;;;;;14.60;41.00;;;13.48;42.63;101948.16;12264513;19;19926;-83
2023/05/25 01:30:26;;;;;;;;;;;14.60;41.00;;;13.44;42.78;101948.38;12273467;19;20330;-83
2023/05/25 01:34:29;;;;;;;;;;;14.50;41.10;;;13.38;42.71;101946.88;12272619;19;19915;-83
2023/05/25 01:38:30;;;;;;;;;;;14.50;41.10;;;13.28;42.79;101929.88;12274415;19;19915;-83
2023/05/25 01:42:32;;;;;;;;;;;14.50;41.10;;;13.30;42.78;101935.06;12267916;19;19944;-84
2023/05/25 01:46:38;;;;;;;;;;;14.40;41.20;;;13.35;42.73;101957.53;12269129;19;19919;-83
2023/05/25 01:50:59;;;;;;;;;;;14.40;41.20;;;13.38;42.90;101953.91;12275383;19;19911;-84
2023/05/25 01:55:06;;;;;;;;;;;14.40;41.50;;;13.36;42.83;101943.47;12269759;19;19919;-83
2023/05/25 01:59:09;;;;;;;;;;;14.50;41.30;;;13.28;42.97;101932.50;12270205;19;19926;-83
2023/05/25 02:03:11;;;;;;;;;;;14.50;41.30;;;13.28;42.90;101932.50;12271478;19;19915;-84
2023/05/25 02:07:12;;;;;;;;;;;14.40;41.20;;;13.34;43.00;101954.97;12267248;19;19918;-84
2023/05/25 02:11:14;;;;;;;;;;;14.40;41.20;;;13.35;42.97;101951.44;12268360;19;19927;-83
2023/05/25 02:15:17;;;;;;;;;;;14.40;41.20;;;13.30;42.91;101942.94;12270881;19;20446;-83
2023/05/25 02:19:18;;;;;;;;;;;14.40;41.20;;;13.02;42.99;101903.06;12270320;19;19915;-83
2023/05/25 02:23:20;;;;;;;;;;;14.40;41.30;;;13.24;43.00;101939.63;12270313;19;19911;-84
2023/05/25 02:27:22;;;;;;;;;;;14.40;41.30;;;13.14;42.99;101933.13;12266835;19;19921;-83
2023/05/25 02:31:23;;;;;;;;;;;14.30;41.20;;;13.03;43.03;101910.00;12269542;19;19919;-83
2023/05/25 02:35:25;;;;;;;;;;;14.30;41.20;;;13.13;42.98;101930.59;12267108;19;19960;-83
2023/05/25 02:39:27;;;;;;;;;;;14.30;41.20;;;12.95;43.16;101906.06;12269022;19;19911;-83
2023/05/25 02:43:30;;;;;;;;;;;14.30;41.30;;;13.14;43.07;101943.59;12265924;19;19923;-83
2023/05/25 02:47:31;;;;;;;;;;;14.30;41.20;;;13.10;43.04;101939.44;12266632;19;19922;-83
2023/05/25 02:51:33;;;;;;;;;;;14.20;41.20;;;13.11;43.18;101951.63;12268727;19;19982;-83
2023/05/25 02:55:36;;;;;;;;;;;14.20;41.30;;;12.96;43.27;101929.59;12262761;19;19958;-83
2023/05/25 02:59:38;;;;;;;;;;;14.20;41.30;;;12.96;43.20;101933.97;12263774;19;19917;-83
2023/05/25 03:03:40;;;;;;;;;;;14.20;41.30;;;13.00;43.17;101954.75;12263169;19;20290;-83
2023/05/25 03:07:42;;;;;;;;;;;14.10;41.30;;;13.02;43.12;101963.38;12266303;19;19925;-84
2023/05/25 03:11:43;;;;;;;;;;;14.10;41.30;;;12.95;43.12;101948.84;12267467;19;19975;-84
2023/05/25 03:15:49;;;;;;;;;;;14.10;41.30;;;12.93;43.28;101947.22;12267275;19;19922;-84
2023/05/25 03:19:51;;;;;;;;;;;14.00;41.30;;;12.93;43.21;101952.47;12267920;19;19944;-83
2023/05/25 03:23:53;;;;;;;;;;;14.00;41.30;;;12.87;43.28;101948.34;12268456;19;19919;-83
2023/05/25 03:27:55;;;;;;;;;;;14.00;41.30;;;12.85;43.34;101958.03;12261942;19;19931;-83
2023/05/25 03:31:58;;;;;;;;;;;14.10;41.40;;;12.82;43.36;101958.19;12262666;19;19926;-84
2023/05/25 03:36:06;;;;;;;;;;;14.00;41.40;;;12.72;43.27;101954.25;12263902;19;19915;-83
2023/05/25 03:40:10;;;;;;;;;;;13.90;41.40;;;12.70;43.35;101966.63;12265767;19;19919;-83
2023/05/25 03:44:12;;;;;;;;;;;13.90;41.40;;;12.70;43.41;101970.06;12263500;19;19922;-83
2023/05/25 03:48:16;;;;;;;;;;;13.80;41.40;;;12.58;43.40;101957.50;12262170;19;19915;-83
2023/05/25 03:52:18;;;;;;;;;;;13.80;41.40;;;12.60;43.33;101960.91;12262497;19;19919;-83
2023/05/25 03:56:20;;;;;;;;;;;13.70;41.40;;;12.56;43.36;101960.19;12259217;19;19906;-83
2023/05/25 04:00:22;;;;;;;;;;;13.80;41.50;;;12.58;43.53;101960.13;12254737;19;19951;-83
2023/05/25 04:04:24;;;;;;;;;;;13.70;41.50;;;12.54;43.53;101956.78;12264112;19;19915;-83
2023/05/25 04:08:27;;;;;;;;;;;13.70;41.60;;;12.47;43.56;101951.88;12264625;19;19919;-84
2023/05/25 04:12:29;;;;;;;;;;;13.70;41.60;;;12.42;43.62;101948.59;12263022;19;19923;-84
2023/05/25 04:16:30;;;;;;;;;;;13.70;41.60;;;12.54;43.53;101977.75;12258363;19;19936;-86
2023/05/25 04:20:34;;;;;;;;;;;13.70;41.60;;;12.57;43.53;101979.38;12255254;19;20341;-86
2023/05/25 04:24:36;;;;;;;;;;;13.70;41.70;;;12.56;43.49;101980.31;12263333;19;20024;-86
2023/05/25 04:28:39;;;;;;;;;;;13.90;41.90;;;12.60;43.65;101987.13;12265364;19;19930;-86
2023/05/25 04:32:49;;;;;;;;;;;13.70;41.80;;;12.27;43.68;101935.25;12240546;19;19923;-86
2023/05/25 04:37:07;;;;;;;;;;;13.80;42.00;;;12.63;43.70;101992.22;12262054;19;19952;-86
2023/05/25 04:41:10;;;;;;;;;;;13.80;42.00;;;12.65;43.72;101997.41;12261110;19;20353;-86
2023/05/25 04:45:16;;;;;;;;;;;13.80;42.00;;;12.70;43.65;102001.53;12264657;19;19933;-86
2023/05/25 04:49:18;;;;;;;;;;;13.80;42.20;;;12.70;43.83;102006.78;12261468;19;19926;-87
2023/05/25 04:53:20;;;;;;;;;;;13.90;42.30;;;12.77;43.88;102002.97;12267243;19;19948;-86
2023/05/25 04:57:21;;;;;;;;;;;13.90;42.50;;;12.85;43.85;102005.22;12264333;19;19926;-87
2023/05/25 05:01:25;;;;;;;;;;;14.00;42.70;;;12.88;43.95;101986.78;12259168;19;19963;-86
2023/05/25 05:05:31;;;;;;;;;;;14.10;42.80;;;13.02;44.14;101996.63;12259988;19;19923;-87
2023/05/25 05:09:36;;;;;;;;;;;14.20;43.10;;;13.13;44.09;101996.16;12265584;19;19922;-87
2023/05/25 05:13:38;;;;;;;;;;;14.30;43.10;;;13.23;44.16;102000.91;12265584;19;19933;-86
2023/05/25 05:17:40;;;;;;;;;;;14.40;43.20;;;13.26;44.15;101989.47;12266396;19;19915;-86
2023/05/25 05:21:42;;;;;;;;;;;14.60;43.30;;;13.34;44.15;101992.56;12262601;19;19923;-84
2023/05/25 05:25:45;;;;;;;;;;;14.70;43.30;;;13.52;44.32;102000.50;12265295;19;19911;-85
2023/05/25 05:29:46;;;;;;;;;;;14.80;43.40;;;13.59;44.36;101986.16;12267256;19;19947;-84
2023/05/25 05:33:48;;;;;;;;;;;14.90;43.50;;;13.83;44.44;101999.91;12261901;19;20340;-84
2023/05/25 05:37:51;;;;;;;;;;;15.10;43.70;;;14.03;44.57;102012.03;12262816;19;20035;-84
2023/05/25 05:41:53;;;;;;;;;;;15.20;44.00;;;14.21;44.65;102016.41;12268022;19;19919;-86
2023/05/25 05:45:55;;;;;;;;;;;15.40;44.10;;;14.18;44.87;101964.00;12267647;19;20246;-84
2023/05/25 05:49:57;;;;;;;;;;;15.70;44.30;;;14.57;44.92;102000.56;12272218;19;19922;-84
2023/05/25 05:53:59;;;;;;;;;;;15.90;44.40;;;14.93;45.03;102020.63;12273358;19;19922;-85
2023/05/25 05:58:00;;;;;;;;;;;16.20;44.50;;;14.97;45.12;101995.84;12272762;19;19947;-84
2023/05/25 06:02:03;;;;;;;;;;;16.50;44.30;;;15.48;45.02;102033.44;12266151;19;19924;-84
2023/05/25 06:06:05;;;;;;;;;;;16.80;44.40;;;15.65;45.00;102027.22;12269670;19;19918;-85
2023/05/25 06:10:08;;;;;;;;;;;17.00;44.30;;;15.93;45.23;102029.22;12271084;19;19978;-84
2023/05/25 06:14:10;;;;;;;;;;;17.30;44.30;;;15.67;45.13;101966.59;12272648;19;19928;-84
2023/05/25 06:18:11;;;;;;;;;;;17.40;44.30;;;16.25;45.07;102026.50;12269872;19;19923;-84
2023/05/25 06:22:13;;;;;;;;;;;17.70;44.30;;;16.44;45.12;102023.63;12262505;19;19930;-85
2023/05/25 06:26:14;;;;;;;;;;;18.00;44.10;;;16.64;44.98;102030.38;12265207;19;20314;-85
2023/05/25 06:30:16;;;;;;;;;;;18.10;44.30;;;16.80;44.99;102036.44;12268914;19;19949;-85
2023/05/25 06:34:18;;;;;;;;;;;18.30;43.60;;;16.66;44.92;102007.38;12264344;19;19922;-84
2023/05/25 06:38:21;;;;;;;;;;;18.40;43.40;;;16.80;44.87;102015.34;12263707;19;20338;-85
2023/05/25 06:42:23;;;;;;;;;;;18.50;43.40;;;17.12;44.76;102062.66;12258376;19;19971;-85
2023/05/25 06:46:30;;;;;;;;;;;18.60;43.30;;;17.21;44.80;102062.09;12251670;19;19953;-84
2023/05/25 06:50:33;;;;;;;;;;;18.70;43.30;;;17.28;44.92;102051.13;12264309;19;19929;-85
2023/05/25 06:54:34;;;;;;;;;;;18.70;43.20;;;17.40;44.96;102061.78;12262296;19;19954;-85
2023/05/25 06:58:36;;;;;;;;;;;18.80;43.40;;;17.50;44.83;102055.91;12265327;19;19922;-85
2023/05/25 07:02:38;;;;;;;;;;;18.90;43.40;;;17.65;44.98;102055.81;12258014;19;20641;-85
2023/05/25 07:06:39;;;;;;;;;;;19.00;43.40;;;17.68;44.64;102045.03;12257129;19;19919;-85
2023/05/25 07:10:41;;;;;;;;;;;19.10;43.30;;;17.68;44.94;102029.19;12265187;19;19915;-85
2023/05/25 07:14:46;;;;;;;;;;;19.30;43.20;;;18.04;44.72;102056.88;12265209;19;20005;-85
2023/05/25 07:18:48;;;;;;;;;;;19.40;43.20;;;18.14;44.96;102047.34;12267580;19;19923;-86
2023/05/25 07:22:49;;;;;;;;;;;19.50;43.10;;;18.28;44.91;102037.66;12260860;19;19923;-85
2023/05/25 07:26:51;;;;;;;;;;;19.70;43.10;;;18.55;44.73;102057.00;12260861;19;19911;-85
2023/05/25 07:30:52;;;;;;;;;;;19.90;43.10;;;18.52;45.24;102016.66;12260331;19;19923;-86
2023/05/25 07:34:54;;;;;;;;;;;20.10;43.10;;;18.93;44.94;102053.56;12259331;19;19967;-85
2023/05/25 07:38:57;;;;;;;;;;;20.30;43.10;;;19.00;44.85;102036.25;12260727;19;19971;-85
2023/05/25 07:42:58;;;;;;;;;;;20.50;42.80;;;19.32;44.99;102069.41;12259272;19;20346;-85
2023/05/25 07:46:59;;;;;;;;;;;20.70;42.70;;;19.39;45.21;102045.00;12258314;19;19918;-84
2023/05/25 07:51:01;;;;;;;;;;;20.90;42.70;;;19.67;44.65;102057.16;12257917;19;19911;-85
2023/05/25 07:55:05;;;;;;;;;;;21.00;42.60;;;19.72;44.96;102022.38;12259219;19;19948;-85
2023/05/25 07:59:06;;;;;;;;;;;21.30;42.60;;;20.13;44.70;102063.53;12259213;19;19923;-85
2023/05/25 08:03:08;;;;;;;;;;;21.50;42.40;;;20.31;44.82;102061.31;12260317;19;19923;-84
2023/05/25 08:07:10;;;;;;;;;;;21.70;42.10;;;20.45;44.72;102055.81;12256890;19;20023;-86
2023/05/25 08:11:12;;;;;;;;;;;21.90;42.10;;;20.60;44.71;102045.84;12257536;19;20469;-85
2023/05/25 08:15:13;;;;;;;;;;;22.10;41.70;;;20.75;44.41;102047.34;12260629;19;19927;-85
2023/05/25 08:19:14;;;;;;;;;;;22.30;41.60;;;20.82;44.49;102050.38;12257831;19;19927;-85
2023/05/25 08:23:16;;;;;;;;;;;22.30;41.50;;;20.94;44.31;102056.53;12259295;19;19931;-86
2023/05/25 08:27:18;;;;;;;;;;;22.40;41.40;;;21.04;44.65;102059.31;12254995;19;19982;-86
2023/05/25 08:31:19;;;;;;;;;;;22.50;41.20;;;21.21;44.40;102066.81;12256633;19;19914;-85
2023/05/25 08:35:20;;;;;;;;;;;22.60;41.40;;;21.38;44.40;102073.47;12259113;19;19919;-86
2023/05/25 08:39:22;;;;;;;;;;;22.70;41.00;;;21.53;44.27;102066.09;12260586;19;19961;-85
2023/05/25 08:43:23;;;;;;;;;;;22.90;39.10;;;21.55;44.09;102057.03;12258653;19;19911;-86
2023/05/25 08:47:26;;;;;;;;;;;23.00;40.40;;;21.56;44.24;102032.13;12258594;19;20256;-84
2023/05/25 08:51:31;;;;;;;;;;;23.10;38.80;;;21.86;43.84;102070.47;12259704;19;19978;-86
2023/05/25 08:55:35;;;;;;;;;;;23.20;38.70;;;21.88;43.79;102049.94;12252746;19;19986;-86
2023/05/25 08:59:49;;;;;;;;;;;23.30;40.10;;;22.09;43.98;102072.09;12255707;19;20350;-85
2023/05/25 09:03:51;;;;;;;;;;;23.40;39.80;;;22.09;43.79;102065.94;12261264;19;19907;-85
2023/05/25 09:07:55;;;;;;;;;;;23.50;40.10;;;21.88;43.62;102010.88;12260338;19;19922;-84
2023/05/25 09:11:57;;;;;;;;;;;23.60;40.30;;;22.22;43.75;102053.31;12267930;19;19915;-85
2023/05/25 09:15:58;;;;;;;;;;;23.70;39.80;;;22.42;43.47;102062.31;12269320;19;19915;-86
2023/05/25 09:20:00;;;;;;;;;;;23.80;39.70;;;22.42;43.63;102040.16;12271146;19;20284;-85
2023/05/25 09:24:02;;;;;;;;;;;23.90;40.40;;;22.70;43.50;102074.09;12276852;19;20304;-86
2023/05/25 09:28:06;;;;;;;;;;;24.00;38.10;;;22.71;43.39;102074.94;12274786;19;19931;-87
2023/05/25 09:32:08;;;;;;;;;;;24.10;38.40;;;22.72;43.38;102074.81;12272621;19;20326;-87
2023/05/25 09:36:13;;;;;;;;;;;24.10;39.10;;;22.69;43.07;102071.59;12271191;19;19910;-88
2023/05/25 09:40:15;;;;;;;;;;;24.10;39.50;;;22.62;43.15;102051.78;12274285;19;20339;-87
2023/05/25 09:44:17;;;;;;;;;;;24.00;36.70;;;22.85;42.77;102087.94;12266425;19;19922;-87
2023/05/25 09:48:20;;;;;;;;;;;24.00;38.90;;;22.89;42.79;102088.50;12267824;19;19930;-85
2023/05/25 09:52:22;;;;;;;;;;;24.10;37.50;;;22.88;42.79;102087.69;12270942;19;19915;-87
2023/05/25 09:56:23;;;;;;;;;;;24.10;38.20;;;22.83;42.64;102071.25;12269759;19;19915;-87
2023/05/25 10:00:25;;;;;;;;;;;24.10;37.90;;;22.94;42.82;102078.31;12272172;19;19941;-86
2023/05/25 10:04:27;;;;;;;;;;;24.10;37.30;;;23.00;42.74;102071.63;12274708;19;19911;-87
2023/05/25 10:08:28;;;;;;;;;;;24.20;39.20;;;23.09;42.85;102077.03;12274291;19;19926;-86
2023/05/25 10:12:32;;;;;;;;;;;24.30;37.50;;;23.18;42.42;102078.88;12267201;19;19966;-87
2023/05/25 10:16:33;;;;;;;;;;;24.40;39.00;;;23.30;42.33;102089.44;12267759;19;19938;-87
2023/05/25 10:20:35;;;;;;;;;;;24.40;38.90;;;23.33;42.65;102068.69;12270616;19;19983;-87
2023/05/25 10:24:58;;;;;;;;;;;24.50;38.70;;;23.51;42.42;102084.88;12272877;19;19910;-87
2023/05/25 10:29:03;;;;;;;;;;;24.60;38.00;;;23.51;42.35;102079.53;12272868;19;19915;-87
2023/05/25 10:33:05;;;;;;;;;;;24.70;38.50;;;23.61;42.41;102080.41;12271650;19;19925;-87
2023/05/25 10:37:07;;;;;;;;;;;24.80;38.10;;;23.63;42.00;102066.97;12265492;19;20246;-87
2023/05/25 10:41:10;;;;;;;;;;;24.90;38.60;;;23.77;42.42;102077.25;12260500;19;19955;-87
2023/05/25 10:45:11;;;;;;;;;;;24.90;38.80;;;23.85;42.32;102074.75;12271555;19;19914;-87
2023/05/25 10:49:24;;;;;;;;;;;25.00;38.30;;;23.89;42.19;102077.97;12279167;19;19953;-87
2023/05/25 10:53:25;;;;;;;;;;;25.10;36.50;;;23.80;41.72;102071.63;12281243;19;19958;-88
2023/05/25 10:57:27;;;;;;;;;;;25.10;37.70;;;23.72;41.69;102065.31;12277494;19;19946;-87
2023/05/25 11:01:29;;;;;;;;;;;25.00;37.90;;;23.76;41.58;102072.91;12269881;19;19982;-86
2023/05/25 11:05:38;;;;;;;;;;;24.90;38.10;;;23.79;41.52;102075.31;12268018;19;19915;-87
2023/05/25 11:09:42;;;;;;;;;;;24.90;37.50;;;23.59;41.42;102031.69;12263481;19;19914;-86
2023/05/25 11:13:48;;;;;;;;;;;24.90;37.80;;;23.85;41.61;102080.06;12270783;19;20472;-87
2023/05/25 11:17:59;;;;;;;;;;;24.90;37.80;;;23.80;41.78;102063.63;12273402;19;19939;-87
2023/05/25 11:22:15;;;;;;;;;;;24.90;38.30;;;23.83;41.24;102046.50;12265784;19;19915;-88
2023/05/25 11:26:20;;;;;;;;;;;25.00;38.60;;;23.96;41.58;102075.59;12260630;19;19930;-88
2023/05/25 11:30:26;;;;;;;;;;;25.00;38.30;;;23.76;41.31;102024.91;12264544;19;19965;-88
2023/05/25 11:34:30;;;;;;;;;;;25.00;38.00;;;23.94;41.36;102062.38;12254185;19;20297;-88
2023/05/25 11:38:34;;;;;;;;;;;25.00;38.30;;;23.93;41.33;102057.19;12259547;19;19944;-88
2023/05/25 11:42:37;;;;;;;;;;;25.00;38.20;;;23.94;41.32;102067.72;12260334;19;19919;-87
2023/05/25 11:46:42;;;;;;;;;;;25.00;37.70;;;23.93;41.32;102055.38;12256548;19;20067;-88
2023/05/25 11:50:43;;;;;;;;;;;25.00;38.30;;;23.96;41.32;102057.75;12246147;19;19944;-88
2023/05/25 11:54:45;;;;;;;;;;;25.00;38.40;;;23.97;41.02;102056.75;12254229;19;19909;-87
2023/05/25 11:58:48;;;;;;;;;;;25.00;37.50;;;23.96;40.72;102055.09;12260804;19;20361;-87
2023/05/25 12:02:49;;;;;;;;;;;25.00;38.20;;;23.91;40.76;102048.50;12260428;19;19944;-88
2023/05/25 12:06:51;;;;;;;;;;;25.00;38.10;;;23.85;41.11;102044.56;12262106;19;19907;-88
2023/05/25 12:10:52;;;;;;;;;;;24.90;37.90;;;23.98;41.14;102049.59;12263796;19;19944;-87
2023/05/25 12:14:54;;;;;;;;;;;24.90;38.30;;;24.03;40.76;102058.91;12259169;19;20349;-88
2023/05/25 12:18:56;;;;;;;;;;;25.00;38.20;;;24.07;41.03;102048.78;12258548;19;19926;-87
2023/05/25 12:22:57;;;;;;;;;;;25.00;38.40;;;24.11;40.79;102035.97;12254601;19;20719;-88
2023/05/25 12:27:01;;;;;;;;;;;25.10;38.20;;;24.22;40.80;102051.84;12256199;19;19926;-88
2023/05/25 12:31:21;;;;;;;;;;;25.20;37.90;;;24.26;40.59;102053.25;12258835;19;19922;-88
2023/05/25 12:35:23;;;;;;;;;;;25.20;37.70;;;24.20;40.50;102041.31;12256772;19;19925;-88
2023/05/25 12:39:27;;;;;;;;;;;25.30;38.10;;;24.28;40.86;102046.78;12255804;19;19915;-88
2023/05/25 12:43:39;;;;;;;;;;;25.30;37.80;;;24.22;40.51;102034.03;12263021;19;19923;-87
2023/05/25 12:47:44;;;;;;;;;;;25.20;37.90;;;24.29;40.75;102036.94;12266070;19;19923;-88
2023/05/25 12:51:45;;;;;;;;;;;25.30;38.10;;;24.36;40.54;102042.53;12267727;19;20320;-88
2023/05/25 12:55:47;;;;;;;;;;;25.30;38.00;;;24.40;40.58;102041.28;12261699;19;19926;-88
2023/05/25 12:59:54;;;;;;;;;;;25.30;37.50;;;24.47;40.71;102042.44;12267401;19;19918;-88
2023/05/25 13:03:56;;;;;;;;;;;25.40;37.70;;;24.46;40.68;102032.72;12265551;19;19911;-87
2023/05/25 13:07:58;;;;;;;;;;;25.50;38.20;;;24.43;40.48;102012.47;12265008;19;19919;-88
2023/05/25 13:12:01;;;;;;;;;;;25.50;38.00;;;24.59;40.00;102019.06;12264722;19;20460;-88
2023/05/25 13:16:03;;;;;;;;;;;25.60;38.00;;;24.64;40.54;102028.34;12261559;19;19947;-88
2023/05/25 13:20:05;;;;;;;;;;;25.60;37.90;;;24.59;40.28;102027.91;12264254;19;19919;-88
2023/05/25 13:24:06;;;;;;;;;;;25.60;37.80;;;24.56;40.07;102006.84;12263811;19;20021;-88
2023/05/25 13:28:07;;;;;;;;;;;25.70;38.10;;;24.69;39.93;102039.44;12268037;19;19926;-88
2023/05/25 13:32:09;;;;;;;;;;;25.70;37.80;;;24.66;39.90;102045.06;12275221;19;20230;-88
2023/05/25 13:36:11;;;;;;;;;;;25.60;37.90;;;24.53;39.86;102025.84;12253898;19;20348;-87
2023/05/25 13:40:12;;;;;;;;;;;25.60;37.50;;;24.48;40.24;102030.75;12258332;19;19911;-88
2023/05/25 13:44:14;;;;;;;;;;;25.60;36.90;;;24.45;40.04;102037.22;12256700;19;19914;-88
2023/05/25 13:48:15;;;;;;;;;;;25.50;37.50;;;24.43;40.22;102038.31;12262693;19;20375;-88
2023/05/25 13:52:17;;;;;;;;;;;25.40;37.60;;;24.22;39.88;101988.63;12256127;19;20400;-88
2023/05/25 13:56:18;;;;;;;;;;;25.40;37.20;;;24.51;39.96;102020.63;12253875;19;19990;-88
2023/05/25 14:00:20;;;;;;;;;;;25.50;37.80;;;24.52;40.00;102021.50;12259493;19;19922;-89
2023/05/25 14:04:21;;;;;;;;;;;25.40;37.90;;;24.59;40.18;102035.94;12260022;19;19911;-89
2023/05/25 14:08:23;;;;;;;;;;;25.50;37.90;;;24.56;39.71;102006.84;12260474;19;20118;-88
2023/05/25 14:12:25;;;;;;;;;;;25.50;37.70;;;24.58;39.83;102012.91;12262574;19;19914;-89
2023/05/25 14:16:26;;;;;;;;;;;25.50;37.80;;;24.63;39.93;102013.31;12254023;19;19919;-88
2023/05/25 14:20:27;;;;;;;;;;;25.60;38.00;;;24.70;40.04;102009.03;12255662;19;20326;-89
2023/05/25 14:24:29;;;;;;;;;;;25.60;38.00;;;24.72;39.98;101996.38;12252588;19;19918;-89
2023/05/25 14:28:30;;;;;;;;;;;25.70;37.90;;;24.66;39.82;101982.78;12258960;19;20270;-88
2023/05/25 14:32:31;;;;;;;;;;;25.70;37.80;;;24.83;39.89;102013.22;12256837;19;19918;-88
2023/05/25 14:36:33;;;;;;;;;;;25.70;37.70;;;24.68;39.36;101989.66;12252653;19;19922;-88
2023/05/25 14:40:34;;;;;;;;;;;25.70;37.90;;;24.71;39.86;101992.03;12257522;19;19937;-88
2023/05/25 14:44:36;;;;;;;;;;;25.70;37.60;;;24.81;39.63;102001.84;12255639;19;19919;-88
2023/05/25 14:48:37;;;;;;;;;;;25.70;37.70;;;24.89;39.41;102001.94;12257627;19;20342;-87
2023/05/25 14:52:38;;;;;;;;;;;25.70;38.00;;;24.91;39.30;101999.97;12256262;19;19942;-87
2023/05/25 14:56:39;;;;;;;;;;;25.80;37.00;;;24.91;39.28;101987.44;12249639;19;19923;-87
2023/05/25 15:00:41;;;;;;;;;;;25.90;37.80;;;25.09;39.61;102008.06;12253839;19;20004;-88
2023/05/25 15:04:42;;;;;;;;;;;25.90;37.30;;;25.08;39.24;102001.00;12252346;19;20431;-87
2023/05/25 15:08:44;;;;;;;;;;;26.00;37.10;;;25.06;39.58;101997.63;12256981;19;19915;-88
2023/05/25 15:12:45;;;;;;;;;;;26.00;37.50;;;25.07;39.01;101997.50;12254802;19;20265;-88
2023/05/25 15:16:46;;;;;;;;;;;26.00;37.50;;;25.04;39.13;101987.09;12253450;19;20338;-87
2023/05/25 15:20:48;;;;;;;;;;;26.00;37.60;;;25.07;39.50;101994.00;12254491;19;19923;-88
2023/05/25 15:24:49;;;;;;;;;;;25.90;37.30;;;24.94;39.41;101984.47;12252187;19;19922;-88
2023/05/25 15:28:50;;;;;;;;;;;25.90;37.70;;;25.01;38.97;102005.28;12254485;19;19926;-88
2023/05/25 15:32:52;;;;;;;;;;;25.90;37.70;;;24.81;38.95;101973.28;12251218;19;19946;-88
2023/05/25 15:36:54;;;;;;;;;;;25.80;37.80;;;24.85;38.83;101995.22;12239493;19;19919;-87
2023/05/25 15:40:55;;;;;;;;;;;25.80;37.70;;;24.86;38.96;102004.91;12246566;19;20337;-87
2023/05/25 15:44:57;;;;;;;;;;;25.70;37.40;;;24.78;39.03;102010.16;12246837;19;19911;-87
2023/05/25 15:48:58;;;;;;;;;;;25.60;37.20;;;24.63;39.18;101985.75;12248852;19;19939;-87
2023/05/25 15:53:00;;;;;;;;;;;25.60;37.60;;;24.58;39.29;101994.19;12249343;19;19935;-86
2023/05/25 15:57:02;;;;;;;;;;;25.40;37.30;;;24.50;39.32;101981.56;12246168;19;19911;-86
2023/05/25 16:01:03;;;;;;;;;;;25.40;37.30;;;24.53;39.34;101996.47;12250485;19;19923;-87
2023/05/25 16:05:05;;;;;;;;;;;25.30;37.60;;;24.43;39.02;101980.41;12247919;19;19923;-86
2023/05/25 16:09:07;;;;;;;;;;;25.30;37.40;;;24.49;39.05;101992.38;12251072;19;19947;-87
2023/05/25 16:13:09;;;;;;;;;;;25.30;37.30;;;24.36;39.17;101989.13;12251737;19;19923;-87
2023/05/25 16:17:11;;;;;;;;;;;25.20;36.90;;;24.19;38.80;101964.03;12245550;19;19923;-86
2023/05/25 16:21:13;;;;;;;;;;;25.20;36.90;;;24.09;39.28;101961.41;12261203;19;19926;-86
2023/05/25 16:25:14;;;;;;;;;;;25.10;36.60;;;24.19;39.15;101988.91;12261107;19;19927;-86
2023/05/25 16:29:16;;;;;;;;;;;25.00;36.90;;;24.14;39.20;101985.84;12261880;19;20258;-86
2023/05/25 16:33:17;;;;;;;;;;;25.00;37.30;;;23.88;39.10;101945.53;12258896;19;20291;-87
2023/05/25 16:37:22;;;;;;;;;;;24.90;37.80;;;24.02;39.05;101979.78;12254915;19;21374;-86
2023/05/25 16:41:23;;;;;;;;;;;24.90;37.20;;;24.03;38.82;101988.63;12257701;19;19918;-87
2023/05/25 16:45:25;;;;;;;;;;;24.80;37.00;;;23.91;38.89;101979.09;12257713;19;19926;-86
2023/05/25 16:49:26;;;;;;;;;;;24.80;37.30;;;23.93;38.99;101982.50;12261659;19;19939;-87
2023/05/25 16:53:28;;;;;;;;;;;24.70;37.60;;;23.83;38.90;101971.81;12261304;19;19906;-86
2023/05/25 16:57:29;;;;;;;;;;;24.60;36.90;;;23.78;38.90;101964.22;12252067;19;19922;-86
2023/05/25 17:01:31;;;;;;;;;;;24.60;37.30;;;23.68;38.82;101957.16;12258676;19;19937;-87
2023/05/25 17:05:32;;;;;;;;;;;24.60;37.40;;;23.73;39.00;101961.13;12256531;19;19922;-85
2023/05/25 17:09:34;;;;;;;;;;;24.60;37.60;;;23.80;39.09;101970.25;12257753;19;19926;-87
2023/05/25 17:13:35;;;;;;;;;;;24.60;37.60;;;23.56;38.64;101943.97;12258423;19;19921;-87
2023/05/25 17:17:37;;;;;;;;;;;24.50;37.70;;;23.52;38.76;101945.25;12257805;19;19911;-87
2023/05/25 17:21:38;;;;;;;;;;;24.50;37.70;;;23.66;38.57;101984.00;12256156;19;20315;-87
2023/05/25 17:25:41;;;;;;;;;;;24.40;37.70;;;23.62;38.62;101974.56;12252949;19;19927;-88
2023/05/25 17:29:42;;;;;;;;;;;24.40;37.80;;;23.45;38.59;101957.44;12259157;19;19923;-87
2023/05/25 17:33:44;;;;;;;;;;;24.30;37.70;;;23.34;38.95;101946.91;12258074;19;19911;-88
2023/05/25 17:37:48;;;;;;;;;;;24.30;37.80;;;23.52;38.85;101979.03;12262270;19;19921;-87
2023/05/25 17:41:49;;;;;;;;;;;24.20;37.60;;;23.25;38.76;101948.59;12259174;19;19922;-87
2023/05/25 17:45:51;;;;;;;;;;;24.20;37.80;;;23.19;38.96;101947.28;12252759;19;20287;-86
2023/05/25 17:49:53;;;;;;;;;;;24.20;37.80;;;23.38;38.60;101986.47;12262377;19;20330;-86
2023/05/25 17:53:55;;;;;;;;;;;24.10;37.80;;;23.33;38.75;101991.41;12262331;19;19923;-86
2023/05/25 17:57:57;;;;;;;;;;;24.10;37.80;;;23.22;38.52;101996.81;12256439;19;20338;-86
2023/05/25 18:01:58;;;;;;;;;;;24.00;37.70;;;23.08;38.63;101983.88;12252033;19;20239;-86
2023/05/25 18:06:00;;;;;;;;;;;23.90;37.70;;;22.99;38.64;101984.69;12246814;19;19948;-87
2023/05/25 18:10:02;;;;;;;;;;;23.90;37.80;;;22.93;39.02;101981.56;12256236;19;20286;-86